Time;durP1;ratioP1;P1;durP2;ratioP2;P2;SDS_P1;SDS_P2;PMS_P1;PMS_P2;Temp;Humidity;BMP_temperature;BMP_pressure;BME280_temperature;BME280_humidity;BME280_pressure;Samples;Min_cycle;Max_cycle;Signal;HPM_P1;HPM_P2
2022/11/13 00:00:54;;;;;;;30.20;19.38;;;10.80;99.90;;;;;;5014095;28;20168;-79
2022/11/13 00:03:20;;;;;;;30.02;18.08;;;10.80;99.90;;;;;;4996031;28;20219;-78
2022/11/13 00:05:45;;;;;;;29.05;18.95;;;10.90;99.90;;;;;;4996626;28;20172;-79
2022/11/13 00:08:11;;;;;;;33.53;18.90;;;10.80;99.90;;;;;;5013954;28;20192;-81
2022/11/13 00:10:37;;;;;;;24.65;17.70;;;11.00;99.90;;;;;;5013200;28;20192;-79
2022/11/13 00:13:03;;;;;;;30.67;21.02;;;10.80;99.90;;;;;;5015283;28;20165;-86
2022/11/13 00:15:28;;;;;;;29.75;20.48;;;10.80;99.90;;;;;;5015255;28;20219;-79
2022/11/13 00:17:54;;;;;;;24.67;18.50;;;10.90;99.90;;;;;;5013932;28;20279;-79
2022/11/13 00:20:19;;;;;;;22.80;17.95;;;10.90;99.90;;;;;;5013751;28;20180;-79
2022/11/13 00:22:46;;;;;;;24.15;17.70;;;10.90;99.90;;;;;;5013948;28;20543;-79
2022/11/13 00:25:11;;;;;;;28.65;18.30;;;10.80;99.90;;;;;;5013767;28;20227;-80
2022/11/13 00:27:37;;;;;;;23.55;18.38;;;10.80;99.90;;;;;;4996444;28;20172;-81
2022/11/13 00:30:03;;;;;;;24.50;17.33;;;10.80;99.90;;;;;;5014741;28;20172;-80
2022/11/13 00:32:29;;;;;;;27.52;16.95;;;10.80;99.90;;;;;;4996451;28;20177;-86
2022/11/13 00:34:54;;;;;;;24.83;18.05;;;10.70;99.90;;;;;;5013504;28;20689;-85
2022/11/13 00:37:20;;;;;;;27.00;16.95;;;10.60;99.90;;;;;;4995841;28;20180;-83
2022/11/13 00:39:46;;;;;;;21.05;17.35;;;10.70;99.90;;;;;;5014018;28;20188;-80
2022/11/13 00:42:12;;;;;;;26.15;17.48;;;10.50;99.90;;;;;;5013808;28;20208;-93
2022/11/13 00:44:37;;;;;;;26.33;18.77;;;10.30;99.90;;;;;;5013428;28;20164;-79
2022/11/13 00:47:03;;;;;;;28.30;17.05;;;10.30;99.90;;;;;;5013528;28;20220;-79
2022/11/13 00:49:28;;;;;;;27.92;16.95;;;10.30;99.90;;;;;;4995846;28;20194;-79
2022/11/13 00:51:54;;;;;;;27.65;17.52;;;10.40;99.90;;;;;;5013557;28;20543;-79
2022/11/13 00:54:20;;;;;;;25.60;17.58;;;10.50;99.90;;;;;;5013371;28;20168;-81
2022/11/13 00:56:45;;;;;;;27.95;19.33;;;10.40;99.90;;;;;;5013173;28;20169;-79
2022/11/13 00:59:11;;;;;;;27.60;18.50;;;10.10;99.90;;;;;;4995543;28;20618;-79
2022/11/13 01:01:36;;;;;;;27.95;18.95;;;10.30;99.90;;;;;;5013056;28;20176;-81
2022/11/13 01:04:02;;;;;;;24.77;18.27;;;10.20;99.90;;;;;;4996224;28;20165;-82
2022/11/13 01:06:28;;;;;;;25.45;17.83;;;10.30;99.90;;;;;;5013328;28;20504;-79
2022/11/13 01:08:55;;;;;;;29.98;17.02;;;10.20;99.90;;;;;;4995790;28;20195;-81
2022/11/13 01:11:22;;;;;;;32.42;17.27;;;10.30;99.90;;;;;;4996075;28;20188;-81
2022/11/13 01:13:49;;;;;;;27.40;17.27;;;10.30;99.90;;;;;;5014133;28;20161;-79
2022/11/13 01:16:17;;;;;;;25.23;16.75;;;10.40;99.90;;;;;;5013301;28;20168;-81
2022/11/13 01:18:43;;;;;;;23.33;15.73;;;10.40;99.90;;;;;;4994860;28;20664;-85
2022/11/13 01:21:11;;;;;;;24.20;17.30;;;10.20;99.90;;;;;;4995213;28;20172;-85
2022/11/13 01:23:38;;;;;;;22.85;16.83;;;10.20;99.90;;;;;;5012763;28;20203;-80
2022/11/13 01:26:16;;;;;;;17.80;15.68;;;10.30;99.90;;;;;;5014300;28;20164;-92
2022/11/13 01:28:43;;;;;;;22.80;16.77;;;10.20;99.90;;;;;;5014094;28;20259;-80
2022/11/13 01:31:12;;;;;;;25.10;16.13;;;10.30;99.90;;;;;;5013501;28;20172;-81
2022/11/13 01:33:37;;;;;;;23.50;15.75;;;10.30;99.90;;;;;;4995374;28;20218;-79
2022/11/13 01:36:06;;;;;;;23.92;16.83;;;10.30;99.90;;;;;;4995334;28;20184;-81
2022/11/13 01:38:33;;;;;;;27.40;16.48;;;10.00;99.90;;;;;;5014792;28;20200;-91
2022/11/13 01:40:59;;;;;;;19.65;15.38;;;10.10;99.90;;;;;;4997209;28;20161;-93
2022/11/13 01:43:33;;;;;;;20.85;15.27;;;10.10;99.90;;;;;;5015607;28;20204;-91
2022/11/13 01:45:59;;;;;;;23.95;16.60;;;10.20;99.90;;;;;;4995544;28;20174;-80
2022/11/13 01:48:37;;;;;;;22.02;15.65;;;10.30;99.90;;;;;;5012810;28;20197;-79
2022/11/13 01:51:12;;;;;;;25.83;15.95;;;10.20;99.90;;;;;;4998907;28;20164;-80
2022/11/13 01:53:42;;;;;;;20.92;14.77;;;10.20;99.90;;;;;;5018958;28;20157;-86
2022/11/13 01:56:08;;;;;;;23.05;15.93;;;10.30;99.90;;;;;;5020575;28;20594;-90
2022/11/13 01:58:36;;;;;;;19.42;14.40;;;10.20;99.90;;;;;;5001275;28;20212;-80
2022/11/13 02:01:01;;;;;;;23.38;16.17;;;10.30;99.90;;;;;;5016248;28;20255;-81
2022/11/13 02:03:27;;;;;;;19.92;15.02;;;10.30;99.90;;;;;;5014821;28;20744;-79
2022/11/13 02:05:53;;;;;;;20.23;15.68;;;10.20;99.90;;;;;;4997788;28;20649;-79
2022/11/13 02:08:19;;;;;;;20.90;15.52;;;10.30;99.90;;;;;;4998232;28;21060;-79
2022/11/13 02:10:46;;;;;;;17.23;14.60;;;10.40;99.90;;;;;;5016140;28;20165;-79
2022/11/13 02:13:13;;;;;;;22.77;15.63;;;10.30;99.90;;;;;;4999537;28;20183;-91
2022/11/13 02:15:41;;;;;;;18.20;14.65;;;10.40;99.90;;;;;;5019578;28;20625;-90
2022/11/13 02:18:07;;;;;;;21.35;14.90;;;10.30;99.90;;;;;;5017653;28;20671;-89
2022/11/13 02:20:54;;;;;;;19.52;14.63;;;10.30;99.90;;;;;;5018684;28;20188;-90
2022/11/13 02:23:29;;;;;;;22.45;14.43;;;10.20;99.90;;;;;;5018141;28;20214;-82
2022/11/13 02:25:55;;;;;;;17.27;14.55;;;10.20;99.90;;;;;;5018607;28;20230;-85
2022/11/13 02:28:21;;;;;;;18.98;14.48;;;10.20;99.90;;;;;;5019810;28;20180;-92
2022/11/13 02:30:46;;;;;;;22.63;14.55;;;10.30;99.90;;;;;;5020140;28;20172;-82
2022/11/13 02:33:26;;;;;;;22.38;14.57;;;10.30;99.90;;;;;;5019997;28;20168;-90
2022/11/13 02:35:52;;;;;;;17.25;14.43;;;10.20;99.90;;;;;;5020263;28;20214;-89
2022/11/13 02:38:18;;;;;;;20.15;13.98;;;10.30;99.90;;;;;;5000903;28;20241;-88
2022/11/13 02:40:43;;;;;;;22.48;14.13;;;10.20;99.90;;;;;;5018120;28;20198;-86
2022/11/13 02:43:09;;;;;;;20.67;14.80;;;10.20;99.90;;;;;;5019752;28;20228;-93
2022/11/13 02:45:37;;;;;;;18.45;15.45;;;10.00;99.90;;;;;;5019894;28;20569;-91
2022/11/13 02:48:03;;;;;;;21.05;13.93;;;10.00;99.90;;;;;;5017966;28;20184;-88
2022/11/13 02:50:29;;;;;;;18.75;13.88;;;9.90;99.90;;;;;;5017463;28;20247;-82
2022/11/13 02:52:54;;;;;;;16.77;14.07;;;9.80;99.90;;;;;;5020330;28;20192;-89
2022/11/13 02:55:20;;;;;;;17.60;14.32;;;9.80;99.90;;;;;;5020534;28;20157;-87
2022/11/13 02:57:46;;;;;;;16.45;13.63;;;9.80;99.90;;;;;;5024923;28;20169;-88
2022/11/13 03:00:12;;;;;;;21.85;15.32;;;9.80;99.90;;;;;;5017618;28;20188;-83
2022/11/13 03:02:38;;;;;;;18.65;14.57;;;9.80;99.90;;;;;;5016609;28;20223;-79
2022/11/13 03:05:04;;;;;;;17.58;14.00;;;9.70;99.90;;;;;;5016468;28;20173;-89
2022/11/13 03:07:30;;;;;;;17.15;13.85;;;9.60;99.90;;;;;;5016668;28;20187;-85
2022/11/13 03:09:56;;;;;;;17.23;13.90;;;9.70;99.90;;;;;;4997756;28;20279;-81
2022/11/13 03:12:22;;;;;;;18.88;13.80;;;9.80;99.90;;;;;;4998079;28;20186;-88
2022/11/13 03:14:47;;;;;;;26.23;14.50;;;9.80;99.90;;;;;;4997724;28;20173;-79
2022/11/13 03:17:13;;;;;;;21.40;14.07;;;9.70;99.90;;;;;;5015554;28;20176;-79
2022/11/13 03:19:38;;;;;;;20.55;14.60;;;9.60;99.90;;;;;;4997815;28;20238;-91
2022/11/13 03:22:04;;;;;;;16.63;13.55;;;9.40;99.90;;;;;;4997827;28;20212;-88
2022/11/13 03:24:30;;;;;;;21.33;14.82;;;9.50;99.90;;;;;;5015137;28;20275;-92
2022/11/13 03:26:55;;;;;;;19.83;14.70;;;9.50;99.90;;;;;;5015538;28;20173;-94
2022/11/13 03:29:21;;;;;;;16.65;14.25;;;9.50;99.90;;;;;;5015428;28;20189;-92
2022/11/13 03:31:46;;;;;;;20.58;14.30;;;9.60;99.90;;;;;;5014957;28;20171;-79
2022/11/13 03:34:12;;;;;;;18.35;15.15;;;9.70;99.90;;;;;;5015178;28;20169;-79
2022/11/13 03:36:38;;;;;;;19.80;14.68;;;9.60;99.90;;;;;;4997739;28;20169;-80
2022/11/13 03:39:04;;;;;;;20.52;15.70;;;9.40;99.90;;;;;;5014940;28;20188;-90
2022/11/13 03:41:29;;;;;;;21.05;15.70;;;9.10;99.90;;;;;;4997200;28;20175;-81
2022/11/13 03:43:55;;;;;;;21.90;15.07;;;9.10;99.90;;;;;;4996924;28;20218;-79
2022/11/13 03:46:20;;;;;;;20.17;14.68;;;9.10;99.90;;;;;;5014753;28;20176;-79
2022/11/13 03:48:46;;;;;;;20.42;13.80;;;9.20;99.90;;;;;;5014817;28;20649;-87
2022/11/13 03:51:12;;;;;;;17.92;14.65;;;9.20;99.90;;;;;;5015419;28;20161;-79
2022/11/13 03:53:37;;;;;;;20.25;15.27;;;9.30;99.90;;;;;;5015538;28;20680;-79
2022/11/13 03:56:03;;;;;;;19.42;14.48;;;9.40;99.90;;;;;;5014755;28;20252;-80
2022/11/13 03:58:28;;;;;;;19.50;15.15;;;9.10;99.90;;;;;;5014214;28;20200;-80
2022/11/13 04:00:55;;;;;;;18.92;14.45;;;9.00;99.90;;;;;;5014715;28;20173;-86
2022/11/13 04:03:21;;;;;;;20.77;14.98;;;9.00;99.90;;;;;;4996495;28;20236;-80
2022/11/13 04:05:48;;;;;;;18.17;14.30;;;9.10;99.90;;;;;;4996777;28;20172;-88
2022/11/13 04:08:14;;;;;;;20.17;14.43;;;9.10;99.90;;;;;;5014250;28;20217;-80
2022/11/13 04:10:41;;;;;;;19.92;13.80;;;9.00;99.90;;;;;;5014551;28;20649;-80
2022/11/13 04:13:06;;;;;;;17.38;13.75;;;9.00;99.90;;;;;;5013298;28;20169;-87
2022/11/13 04:15:32;;;;;;;20.75;13.32;;;8.80;99.90;;;;;;4996519;28;20172;-80
2022/11/13 04:17:58;;;;;;;27.30;14.88;;;8.90;99.90;;;;;;5013958;28;20227;-80
2022/11/13 04:20:24;;;;;;;23.17;13.77;;;9.00;99.90;;;;;;5013995;28;20567;-80
2022/11/13 04:22:49;;;;;;;19.40;13.63;;;8.80;99.90;;;;;;5013977;28;20208;-79
2022/11/13 04:25:15;;;;;;;17.83;14.00;;;8.80;99.90;;;;;;5014357;28;20521;-81
2022/11/13 04:27:41;;;;;;;18.42;13.50;;;9.00;99.90;;;;;;5013734;28;20185;-79
2022/11/13 04:30:07;;;;;;;22.67;14.82;;;9.10;99.90;;;;;;4996460;28;20625;-89
2022/11/13 04:32:33;;;;;;;20.30;14.80;;;9.20;99.90;;;;;;4996467;28;20685;-81
2022/11/13 04:34:59;;;;;;;21.45;14.57;;;9.10;99.90;;;;;;5013674;28;20288;-83
2022/11/13 04:37:24;;;;;;;17.02;13.65;;;9.10;99.90;;;;;;5013880;28;20176;-79
2022/11/13 04:39:50;;;;;;;17.33;14.10;;;8.90;99.90;;;;;;4995957;28;20228;-80
2022/11/13 04:44:59;;;;;;;22.13;14.43;;;9.10;99.90;;;;;;5014292;28;20175;-85
2022/11/13 04:47:25;;;;;;;20.80;13.63;;;9.20;99.90;;;;;;5014193;28;20177;-80
2022/11/13 04:49:51;;;;;;;19.80;14.23;;;9.10;99.90;;;;;;5013229;28;20659;-79
2022/11/13 04:52:17;;;;;;;17.98;14.27;;;9.00;99.90;;;;;;5014079;28;20177;-80
2022/11/13 04:54:42;;;;;;;20.77;14.57;;;9.10;99.90;;;;;;4996503;28;20172;-79
2022/11/13 04:57:08;;;;;;;18.88;13.82;;;9.00;99.90;;;;;;4996245;28;20180;-79
2022/11/13 04:59:33;;;;;;;15.27;13.63;;;9.10;99.90;;;;;;4996281;28;20180;-87
2022/11/13 05:01:59;;;;;;;16.58;13.82;;;9.00;99.90;;;;;;5014247;28;20193;-80
2022/11/13 05:04:24;;;;;;;18.17;14.38;;;9.30;99.90;;;;;;5013062;28;20185;-81
2022/11/13 05:06:50;;;;;;;22.67;14.73;;;9.40;99.90;;;;;;5013637;28;20168;-84
2022/11/13 05:09:15;;;;;;;22.05;16.05;;;9.40;99.90;;;;;;4995966;28;20204;-80
2022/11/13 05:11:41;;;;;;;22.30;15.20;;;9.30;99.90;;;;;;5013312;28;20196;-79
2022/11/13 05:14:09;;;;;;;21.17;14.45;;;9.30;99.90;;;;;;5014767;28;20168;-80
2022/11/13 05:16:35;;;;;;;20.65;15.68;;;9.30;99.90;;;;;;5012879;28;20164;-80
2022/11/13 05:19:05;;;;;;;29.73;16.10;;;9.20;99.90;;;;;;5013814;28;20223;-80
2022/11/13 05:21:32;;;;;;;17.38;14.75;;;9.20;99.90;;;;;;4995496;28;20160;-81
2022/11/13 05:23:57;;;;;;;15.77;13.85;;;9.10;99.90;;;;;;5012769;28;20247;-82
2022/11/13 05:26:25;;;;;;;20.67;14.48;;;9.00;99.90;;;;;;5012682;28;20669;-79
2022/11/13 05:28:51;;;;;;;20.33;15.82;;;8.90;99.90;;;;;;5012850;28;20211;-79
2022/11/13 05:31:17;;;;;;;25.02;15.27;;;8.80;99.90;;;;;;5013131;28;20165;-79
2022/11/13 05:33:42;;;;;;;24.00;15.30;;;8.80;99.90;;;;;;5013287;28;20172;-80
2022/11/13 05:36:12;;;;;;;20.83;14.35;;;8.70;99.90;;;;;;5012933;28;20165;-80
2022/11/13 05:38:38;;;;;;;19.52;14.48;;;8.70;99.90;;;;;;5012731;28;20534;-85
2022/11/13 05:41:05;;;;;;;19.10;14.85;;;8.80;99.90;;;;;;5012793;28;20251;-86
2022/11/13 05:43:32;;;;;;;23.83;14.73;;;8.80;99.90;;;;;;5013090;28;20258;-84
2022/11/13 05:46:07;;;;;;;19.77;14.88;;;8.90;99.90;;;;;;4995717;28;20187;-88
2022/11/13 05:48:33;;;;;;;19.80;14.85;;;8.90;99.90;;;;;;4995092;28;20219;-88
2022/11/13 05:51:04;;;;;;;18.30;15.35;;;8.90;99.90;;;;;;5012795;28;20217;-84
2022/11/13 05:53:32;;;;;;;18.70;14.77;;;8.90;99.90;;;;;;4994907;28;20200;-80
2022/11/13 05:56:03;;;;;;;21.30;15.90;;;8.80;99.90;;;;;;4994881;28;20234;-81
2022/11/13 05:58:30;;;;;;;18.70;14.75;;;8.90;99.90;;;;;;5012542;28;20196;-79
2022/11/13 06:01:16;;;;;;;21.48;16.05;;;8.80;99.90;;;;;;5012797;28;20271;-80
2022/11/13 06:03:42;;;;;;;21.83;14.75;;;8.80;99.90;;;;;;4994647;28;20211;-80
2022/11/13 06:06:10;;;;;;;17.92;14.02;;;8.70;99.90;;;;;;5012909;28;20173;-80
2022/11/13 06:08:37;;;;;;;20.27;15.02;;;8.70;99.90;;;;;;5012994;28;20270;-90
2022/11/13 06:11:08;;;;;;;24.13;15.10;;;8.70;99.90;;;;;;5013163;28;20197;-92
2022/11/13 06:13:34;;;;;;;19.98;15.30;;;8.50;99.90;;;;;;4995524;28;20235;-81
2022/11/13 06:16:05;;;;;;;23.92;14.95;;;8.60;99.90;;;;;;4995326;28;20169;-89
2022/11/13 06:18:32;;;;;;;20.55;15.07;;;8.70;99.90;;;;;;4995084;28;20287;-86
2022/11/13 06:21:08;;;;;;;24.33;15.57;;;8.70;99.90;;;;;;5012707;28;20215;-79
2022/11/13 06:23:35;;;;;;;17.08;13.93;;;8.70;99.90;;;;;;4994905;28;20759;-89
2022/11/13 06:26:02;;;;;;;18.30;14.02;;;8.60;99.90;;;;;;4994993;28;20165;-86
2022/11/13 06:28:28;;;;;;;18.55;13.68;;;8.50;99.90;;;;;;5012515;28;20228;-79
2022/11/13 06:30:54;;;;;;;15.52;12.80;;;8.40;99.90;;;;;;5012204;28;20196;-83
2022/11/13 06:33:20;;;;;;;22.10;13.88;;;8.30;99.90;;;;;;4994883;28;20177;-80
2022/11/13 06:35:45;;;;;;;20.48;14.90;;;8.30;99.90;;;;;;4995884;28;20180;-79
2022/11/13 06:38:11;;;;;;;20.77;15.43;;;8.40;99.90;;;;;;5015644;28;20192;-81
2022/11/13 06:40:37;;;;;;;21.33;14.63;;;8.30;99.90;;;;;;4998070;28;20165;-79
2022/11/13 06:43:03;;;;;;;26.40;16.30;;;8.50;99.90;;;;;;5015719;28;20212;-82
2022/11/13 06:45:29;;;;;;;25.75;15.57;;;8.60;99.90;;;;;;5015472;28;20252;-79
2022/11/13 06:47:54;;;;;;;21.63;14.80;;;8.60;99.90;;;;;;5015574;28;20653;-80
2022/11/13 06:50:20;;;;;;;18.45;14.25;;;8.50;99.90;;;;;;5015077;28;20165;-79
2022/11/13 06:52:45;;;;;;;31.00;15.10;;;8.50;99.90;;;;;;5015336;28;20171;-80
2022/11/13 06:55:11;;;;;;;19.63;15.52;;;8.50;99.90;;;;;;5015626;28;20172;-80
2022/11/13 06:57:37;;;;;;;16.23;13.60;;;8.50;99.90;;;;;;5016118;28;20194;-82
2022/11/13 07:00:04;;;;;;;17.45;13.15;;;8.60;99.90;;;;;;5015560;28;20180;-91
2022/11/13 07:02:29;;;;;;;19.00;14.30;;;8.50;99.90;;;;;;5015622;28;20741;-80
2022/11/13 07:07:24;;;;;;;17.17;13.90;;;8.30;99.90;;;;;;4982001;28;20172;-85
2022/11/13 07:09:49;;;;;;;20.83;14.43;;;8.30;99.90;;;;;;5015625;28;20675;-91
2022/11/13 07:12:15;;;;;;;21.98;13.90;;;8.40;99.90;;;;;;4998386;28;20180;-87
2022/11/13 07:14:40;;;;;;;21.88;14.98;;;8.40;99.90;;;;;;5015947;28;20168;-79
2022/11/13 07:17:06;;;;;;;14.48;12.98;;;8.40;99.90;;;;;;5015305;28;20169;-91
2022/11/13 07:19:32;;;;;;;20.98;13.35;;;8.40;99.90;;;;;;5014837;28;20215;-82
2022/11/13 07:21:57;;;;;;;19.67;15.15;;;8.50;99.90;;;;;;4997923;28;20279;-89
2022/11/13 07:24:23;;;;;;;20.23;14.45;;;8.30;99.90;;;;;;4997735;28;20628;-80
2022/11/13 07:26:48;;;;;;;15.90;12.77;;;8.30;99.90;;;;;;4997835;28;20165;-81
2022/11/13 07:29:15;;;;;;;18.45;14.07;;;8.20;99.90;;;;;;5015406;28;20193;-81
2022/11/13 07:31:41;;;;;;;17.88;13.52;;;8.30;99.90;;;;;;5015698;28;20196;-93
2022/11/13 07:34:06;;;;;;;20.50;13.52;;;8.20;99.90;;;;;;5015373;28;20285;-80
2022/11/13 07:36:32;;;;;;;16.10;13.35;;;8.40;99.90;;;;;;5015561;28;20243;-85
2022/11/13 07:38:58;;;;;;;22.30;15.73;;;8.50;99.90;;;;;;5014578;28;20200;-81
2022/11/13 07:41:23;;;;;;;16.27;13.35;;;8.40;99.90;;;;;;5001704;28;20165;-79
2022/11/13 07:43:49;;;;;;;15.32;13.18;;;8.40;99.90;;;;;;5019040;28;20218;-79
2022/11/13 07:46:14;;;;;;;24.42;14.95;;;8.60;99.90;;;;;;5015935;28;20189;-79
2022/11/13 07:48:40;;;;;;;17.98;14.02;;;8.60;99.90;;;;;;5021258;28;20271;-80
2022/11/13 07:51:05;;;;;;;16.23;14.27;;;8.70;99.90;;;;;;5019252;28;20169;-89
2022/11/13 07:53:31;;;;;;;20.48;13.25;;;8.70;99.90;;;;;;5001306;28;20169;-87
2022/11/13 07:56:00;;;;;;;21.17;13.50;;;8.80;99.90;;;;;;5019594;28;20164;-85
2022/11/13 07:58:26;;;;;;;17.98;13.80;;;8.90;99.90;;;;;;5020849;28;20192;-89
2022/11/13 08:00:51;;;;;;;15.63;13.05;;;9.10;99.90;;;;;;5019989;28;20177;-91
2022/11/13 08:03:17;;;;;;;26.13;15.43;;;9.20;99.90;;;;;;5028869;28;20208;-92
2022/11/13 08:05:43;;;;;;;19.92;14.13;;;9.20;99.90;;;;;;5014118;28;20188;-90
2022/11/13 08:08:13;;;;;;;20.30;13.40;;;9.40;99.90;;;;;;5006169;28;20673;-88
2022/11/13 08:10:39;;;;;;;19.80;14.23;;;9.40;99.90;;;;;;4998642;28;20161;-91
2022/11/13 08:13:07;;;;;;;17.17;13.30;;;9.50;99.90;;;;;;5016990;28;20180;-92
2022/11/13 08:15:33;;;;;;;19.48;14.38;;;9.70;99.90;;;;;;5018030;28;20207;-94
2022/11/13 08:18:00;;;;;;;19.20;15.07;;;9.80;99.90;;;;;;5019740;28;20212;-92
2022/11/13 08:20:27;;;;;;;17.98;15.13;;;9.80;99.90;;;;;;5015106;28;20246;-88
2022/11/13 08:22:57;;;;;;;20.90;14.07;;;9.90;99.90;;;;;;5015547;28;20235;-90
2022/11/13 08:25:22;;;;;;;18.75;14.38;;;9.90;99.90;;;;;;4997935;28;20525;-91
2022/11/13 08:27:50;;;;;;;19.52;13.93;;;9.90;99.90;;;;;;5000276;28;20164;-91
2022/11/13 08:30:16;;;;;;;20.00;14.15;;;10.00;99.90;;;;;;5016196;28;20172;-88
2022/11/13 08:32:42;;;;;;;19.58;13.70;;;9.90;99.90;;;;;;5015385;28;20648;-92
2022/11/13 08:35:08;;;;;;;14.32;12.52;;;9.80;99.90;;;;;;5015578;28;20579;-91
2022/11/13 08:37:33;;;;;;;18.45;12.90;;;9.90;99.90;;;;;;4997375;28;20239;-82
2022/11/13 08:39:59;;;;;;;19.52;13.50;;;10.00;99.90;;;;;;5016228;28;20223;-85
2022/11/13 08:42:24;;;;;;;14.35;12.02;;;10.00;99.90;;;;;;5031569;28;20283;-83
2022/11/13 08:44:50;;;;;;;15.45;12.25;;;10.20;99.90;;;;;;5032121;28;20176;-80
2022/11/13 08:47:17;;;;;;;14.80;12.18;;;10.30;99.90;;;;;;5015562;28;20523;-85
2022/11/13 08:49:42;;;;;;;13.20;10.48;;;10.40;99.90;;;;;;5031529;28;20176;-87
2022/11/13 08:52:08;;;;;;;18.13;11.45;;;10.10;99.90;;;;;;5031358;28;20164;-80
2022/11/13 08:54:33;;;;;;;13.20;10.73;;;10.10;99.90;;;;;;5012063;28;20187;-83
2022/11/13 08:56:59;;;;;;;14.60;10.82;;;10.30;99.90;;;;;;5014165;28;20201;-82
2022/11/13 08:59:26;;;;;;;13.15;10.48;;;10.30;99.90;;;;;;5031364;28;20184;-82
2022/11/13 09:01:57;;;;;;;10.82;9.82;;;10.30;99.90;;;;;;5032176;28;20153;-82
2022/11/13 09:04:24;;;;;;;16.65;11.00;;;10.30;99.90;;;;;;5015580;28;20152;-83
2022/11/13 09:06:50;;;;;;;11.50;10.30;;;10.30;99.90;;;;;;5012203;28;20172;-79
2022/11/13 09:09:16;;;;;;;11.85;10.60;;;10.30;99.90;;;;;;5030533;28;20199;-88
2022/11/13 09:11:41;;;;;;;11.68;10.55;;;10.30;99.90;;;;;;5021268;28;20165;-90
2022/11/13 09:14:07;;;;;;;13.20;10.32;;;10.30;99.90;;;;;;5010328;28;20185;-87
2022/11/13 09:16:33;;;;;;;14.07;11.05;;;10.40;99.90;;;;;;4998254;28;20165;-91
2022/11/13 09:18:58;;;;;;;11.25;10.10;;;10.40;99.90;;;;;;4998057;28;20201;-84
2022/11/13 09:21:24;;;;;;;17.65;10.05;;;10.50;99.90;;;;;;4998680;28;20165;-89
2022/11/13 09:23:49;;;;;;;11.70;10.50;;;10.50;99.90;;;;;;4998048;28;20216;-89
2022/11/13 09:26:16;;;;;;;12.95;11.57;;;10.50;99.90;;;;;;4999136;28;20224;-80
2022/11/13 09:28:42;;;;;;;14.30;11.52;;;10.50;99.90;;;;;;5000800;28;20193;-81
2022/11/13 09:31:08;;;;;;;18.70;10.95;;;10.70;99.90;;;;;;5004650;28;20176;-84
2022/11/13 09:33:34;;;;;;;14.90;9.88;;;10.80;99.90;;;;;;4986086;28;20173;-90
2022/11/13 09:36:00;;;;;;;15.13;9.90;;;10.80;99.90;;;;;;5003560;28;20177;-79
2022/11/13 09:38:25;;;;;;;11.77;10.00;;;10.80;99.90;;;;;;4986399;28;20213;-90
2022/11/13 09:41:10;;;;;;;10.77;9.52;;;10.80;99.90;;;;;;5002285;28;20161;-81
2022/11/13 09:43:48;;;;;;;13.70;10.90;;;10.80;99.90;;;;;;4978197;28;20776;-83
2022/11/13 09:46:22;;;;;;;11.48;9.55;;;11.00;99.90;;;;;;4994125;28;20640;-82
2022/11/13 09:48:55;;;;;;;16.00;10.48;;;10.90;99.90;;;;;;4997705;28;20268;-84
2022/11/13 09:51:26;;;;;;;12.23;9.88;;;11.00;99.90;;;;;;4979161;28;20273;-82
2022/11/13 09:53:52;;;;;;;10.65;9.63;;;11.20;99.90;;;;;;4981201;28;20201;-82
2022/11/13 09:56:32;;;;;;;13.10;11.45;;;11.40;99.90;;;;;;4998488;28;20169;-92
2022/11/13 09:59:05;;;;;;;12.00;10.73;;;11.50;99.90;;;;;;4998621;28;20196;-94
2022/11/13 10:02:06;;;;;;;10.82;9.90;;;11.60;99.90;;;;;;4996621;28;20218;-94
2022/11/13 10:05:09;;;;;;;10.43;9.43;;;11.60;99.90;;;;;;4997427;28;20181;-86
2022/11/13 10:07:49;;;;;;;11.68;10.63;;;11.70;99.90;;;;;;4956629;29;20225;-86
2022/11/13 10:10:26;;;;;;;15.13;10.65;;;11.70;99.90;;;;;;4993617;28;20188;-92
2022/11/13 10:12:54;;;;;;;12.23;9.93;;;11.80;99.90;;;;;;4982050;28;20591;-80
2022/11/13 10:15:19;;;;;;;13.75;9.80;;;11.80;99.90;;;;;;4998074;28;20489;-87
2022/11/13 10:17:50;;;;;;;10.77;9.55;;;11.80;99.90;;;;;;4998158;28;20180;-86
2022/11/13 10:20:30;;;;;;;14.77;10.35;;;12.00;99.90;;;;;;4997760;28;20181;-79
2022/11/13 10:23:18;;;;;;;12.30;9.70;;;12.00;99.90;;;;;;4996585;28;20209;-80
2022/11/13 10:25:44;;;;;;;10.80;9.68;;;12.10;99.90;;;;;;5000799;28;20170;-94
2022/11/13 10:28:19;;;;;;;9.93;8.95;;;12.10;99.90;;;;;;5001305;28;20185;-91
2022/11/13 10:30:46;;;;;;;11.07;9.85;;;12.20;99.90;;;;;;4999998;28;20168;-81
2022/11/13 10:33:20;;;;;;;10.68;9.18;;;12.30;99.90;;;;;;5002347;28;20185;-96
2022/11/13 10:36:27;;;;;;;9.25;8.35;;;12.30;99.90;;;;;;4987917;28;20215;-86
2022/11/13 10:39:08;;;;;;;9.35;8.40;;;12.40;99.90;;;;;;5009932;28;20254;-82
2022/11/13 10:42:25;;;;;;;11.02;8.73;;;12.50;99.90;;;;;;5011630;28;20180;-78
2022/11/13 10:44:57;;;;;;;14.85;9.05;;;12.70;99.90;;;;;;5011520;28;20256;-80
2022/11/13 10:47:27;;;;;;;16.75;9.05;;;12.70;99.90;;;;;;4979767;28;20177;-79
2022/11/13 10:49:56;;;;;;;9.68;7.65;;;12.50;99.90;;;;;;4994374;28;20197;-78
2022/11/13 10:52:29;;;;;;;8.13;7.28;;;12.50;99.90;;;;;;4982488;28;20630;-78
2022/11/13 10:55:24;;;;;;;14.30;8.38;;;12.50;99.90;;;;;;4978978;28;20177;-78
2022/11/13 10:58:24;;;;;;;9.68;8.68;;;12.40;99.90;;;;;;5014547;28;20192;-83
2022/11/13 11:01:12;;;;;;;13.02;9.07;;;12.50;99.90;;;;;;5014482;28;20173;-78
2022/11/13 11:03:58;;;;;;;10.93;8.23;;;12.60;99.90;;;;;;5016346;28;20189;-80
2022/11/13 11:06:33;;;;;;;14.60;8.15;;;12.60;99.90;;;;;;5014957;28;20169;-86
2022/11/13 11:09:29;;;;;;;12.93;8.82;;;12.80;99.90;;;;;;5014816;28;20189;-86
2022/11/13 11:12:25;;;;;;;9.20;7.97;;;12.80;99.90;;;;;;5013406;28;20169;-79
2022/11/13 11:14:57;;;;;;;11.55;7.82;;;12.80;99.90;;;;;;5011085;28;20181;-78
2022/11/13 11:18:09;;;;;;;9.23;8.32;;;12.90;99.90;;;;;;5014586;28;20149;-83
2022/11/13 11:20:58;;;;;;;9.55;8.15;;;12.90;99.90;;;;;;5012335;28;20201;-86
2022/11/13 11:24:01;;;;;;;9.05;8.07;;;13.00;99.90;;;;;;5012716;28;20209;-84
2022/11/13 11:26:32;;;;;;;8.43;7.18;;;13.20;99.90;;;;;;5013380;28;20173;-85
2022/11/13 11:29:32;;;;;;;17.05;8.30;;;13.20;99.90;;;;;;4995190;28;20660;-87
2022/11/13 11:32:51;;;;;;;9.35;8.50;;;13.30;99.90;;;;;;5011989;28;20205;-81
2022/11/13 11:36:09;;;;;;;8.32;7.43;;;13.40;99.90;;;;;;5009803;28;20169;-79
2022/11/13 11:39:00;;;;;;;7.90;7.20;;;13.40;99.90;;;;;;5010409;28;20197;-83
2022/11/13 11:41:34;;;;;;;8.65;7.88;;;13.50;99.90;;;;;;5015263;28;20204;-79
2022/11/13 11:44:17;;;;;;;7.68;7.03;;;13.70;99.90;;;;;;5005772;28;20224;-79
2022/11/13 11:46:55;;;;;;;7.75;6.90;;;13.70;99.90;;;;;;5008202;28;20225;-78
2022/11/13 11:49:24;;;;;;;8.02;7.13;;;14.00;99.90;;;;;;5012790;28;20192;-80
2022/11/13 11:52:42;;;;;;;6.60;6.03;;;14.00;99.90;;;;;;4997455;28;20221;-78
2022/11/13 11:55:53;;;;;;;6.50;6.00;;;14.10;99.90;;;;;;5012808;28;20239;-81
2022/11/13 11:58:31;;;;;;;6.68;6.03;;;14.20;99.90;;;;;;4999809;28;20185;-83
2022/11/13 12:01:32;;;;;;;6.78;6.13;;;14.30;99.90;;;;;;5017606;28;20267;-79
2022/11/13 12:04:20;;;;;;;5.70;5.20;;;14.20;99.90;;;;;;5010899;28;20220;-78
2022/11/13 12:07:31;;;;;;;6.45;5.22;;;14.20;99.90;;;;;;5018131;28;20164;-78
2022/11/13 12:10:34;;;;;;;5.55;5.05;;;14.40;99.90;;;;;;5014748;28;20197;-80
2022/11/13 12:13:34;;;;;;;6.07;5.57;;;14.40;99.90;;;;;;5014743;28;20184;-80
2022/11/13 12:16:56;;;;;;;4.80;4.40;;;14.40;99.90;;;;;;5017811;28;20162;-80
2022/11/13 12:19:37;;;;;;;6.13;4.45;;;14.40;99.90;;;;;;4999173;28;20224;-79
2022/11/13 12:22:30;;;;;;;4.93;4.38;;;14.30;99.90;;;;;;5016530;28;20180;-79
2022/11/13 12:25:17;;;;;;;4.20;3.50;;;14.40;99.90;;;;;;5001131;28;20169;-80
2022/11/13 12:28:11;;;;;;;5.55;3.30;;;14.50;99.90;;;;;;5018031;28;20249;-79
2022/11/13 12:31:45;;;;;;;3.67;3.22;;;14.70;99.90;;;;;;5018069;28;20177;-79
2022/11/13 12:34:41;;;;;;;8.15;3.67;;;14.90;99.90;;;;;;5016143;28;20181;-78
2022/11/13 12:37:27;;;;;;;3.58;3.28;;;14.90;99.90;;;;;;5001409;28;20149;-79
2022/11/13 12:40:39;;;;;;;3.63;3.30;;;14.80;99.90;;;;;;5017058;28;20193;-78
2022/11/13 12:43:42;;;;;;;3.15;2.85;;;14.70;99.90;;;;;;4981738;28;20259;-79
2022/11/13 12:46:39;;;;;;;2.92;2.60;;;14.80;99.90;;;;;;5016727;28;20241;-84
2022/11/13 12:49:36;;;;;;;3.03;2.55;;;14.80;99.90;;;;;;5015245;28;20193;-87
2022/11/13 12:52:23;;;;;;;3.83;3.10;;;14.70;99.90;;;;;;5015691;28;20182;-83
2022/11/13 12:55:42;;;;;;;4.20;3.28;;;14.80;99.90;;;;;;5012869;28;20169;-82
2022/11/13 12:58:39;;;;;;;4.68;3.78;;;15.00;99.90;;;;;;5014253;28;20197;-79
2022/11/13 13:01:21;;;;;;;3.20;2.53;;;14.90;99.90;;;;;;5015266;28;20173;-81
2022/11/13 13:04:33;;;;;;;4.60;3.33;;;15.10;99.90;;;;;;4963351;28;20212;-79